CGZ weather

Casa Grande Municipal Airport
Casa Grande, Arizona, United States

Public forecast

Using degrees Fahrenheit for public forecast. Weather courtesy of forecast.io.

METAR (pilot weather report)

Retrieved 2019/09/21 10:56 UTC (1 hour ago):

KCGZ 211056Z AUTO 00000KT 10SM CLR 21/05 A2988 RMK AO2 SLP103 T02110050

TAF (pilot weather forecast)

Closest forecast is Phoenix-Mesa-Gateway Airport, 21.9 nm (40.6 km) NNE. Retrieved 2019/09/21 06:42 UTC (5 hours ago):

TAF KIWA 210540Z 2106/2206 VRB03KT P6SM SKC TEMPO 2106/2107 32004KT FM210800 13006KT P6SM SKC FM212000 27006KT P6SM SKC AMD LTD TO CLD VIS AND WIND TIL 211200